METAR AND TAF INFORMATION
METAR FOR LEVC
ADDS - METARS form results

(2240 UTC 26 April 2018)
Data provider http://aviationweather.gov/adds/metars/
 
METAR text: LEVC 262230Z 04003KT 010V070 CAVOK 18/14 Q1015 NOSIG
Conditions at: LEVC (VALENCIA (CIV/MI, ES) observed 2230 UTC 26 April 2018
Temperature: 18.0°C (64°F)
Dewpoint: 14.0°C (57°F) [RH = 77%]
Pressure (altimeter): 29.97 inches Hg (1015.0 mb)
Winds: from the NE (40 degrees) at 3 MPH (3 knots; 1.6 m/s)
Visibility: 6 or more miles (10+ km)
Ceiling: ceiling and visibility are OK
Clouds: unknown
Weather: no significant weather observed at this time

METAR text: LEVC 262200Z VRB03KT CAVOK 18/14 Q1015 NOSIG
Conditions at: LEVC (VALENCIA (CIV/MI, ES) observed 2200 UTC 26 April 2018
Temperature: 18.0°C (64°F)
Dewpoint: 14.0°C (57°F) [RH = 77%]
Pressure (altimeter): 29.97 inches Hg (1015.0 mb)
Winds: variable direction winds at 3 MPH (3 knots; 1.6 m/s)
Visibility: 6 or more miles (10+ km)
Ceiling: ceiling and visibility are OK
Clouds: unknown
Weather: no significant weather observed at this time

Forecast for: LEVC (VALENCIA (CIV/MI, ES)
Text: TAF LEVC 261700Z 2618/2718 VRB03KT 9999 FEW030 TX27/2713Z TN12/2706Z
Forecast period: 1800 UTC 26 April 2018 to 1800 UTC 27 April 2018
Forecast type: FROM: standard forecast or significant change
Winds: variable direction winds at 3 MPH (3 knots; 1.6 m/s)
Visibility: 6 or more miles (10+ km)
Clouds: few clouds at 3000 feet AGL
Weather: no significant weather forecast for this period
Forecast for: LEVC (VALENCIA (CIV/MI, ES)
Text: TAF LEVC 261700Z 2618/2718 VRB03KT 9999 FEW030 TX27/2713Z TN12/2706Z
Forecast period: 1800 UTC 26 April 2018 to 1800 UTC 27 April 2018
Forecast type: FROM: standard forecast or significant change
Winds: variable direction winds at 3 MPH (3 knots; 1.6 m/s)
Visibility: 6 or more miles (10+ km)
Clouds: few clouds at 3000 feet AGL
Weather: no significant weather forecast for this period
Forecast for: LEVC (VALENCIA (CIV/MI, ES)
Text: TAF LEVC 261700Z 2618/2718 VRB03KT 9999 FEW030 TX27/2713Z TN12/2706Z
Forecast period: 1800 to 2000 UTC 26 April 2018
Forecast type: TEMPORARY: The following changes expected for less than half the time period
Winds: from the SE (140 degrees) at 12 MPH (10 knots; 5.2 m/s)
Weather: no significant weather forecast for this period
Forecast for: LEVC (VALENCIA (CIV/MI, ES)
Text: TAF LEVC 261700Z 2618/2718 VRB03KT 9999 FEW030 TX27/2713Z TN12/2706Z
Forecast period: 1800 to 2000 UTC 26 April 2018
Forecast type: TEMPORARY: The following changes expected for less than half the time period
Winds: from the SE (140 degrees) at 12 MPH (10 knots; 5.2 m/s)
Weather: no significant weather forecast for this period
Forecast for: LEVC (VALENCIA (CIV/MI, ES)
Text: TAF LEVC 261700Z 2618/2718 VRB03KT 9999 FEW030 TX27/2713Z TN12/2706Z
Forecast period: 0700 to 1200 UTC 27 April 2018
Forecast type: TEMPORARY: The following changes expected for less than half the time period
Winds: from the W (260 degrees) at 12 MPH (10 knots; 5.2 m/s)
Weather: no significant weather forecast for this period
Forecast for: LEVC (VALENCIA (CIV/MI, ES)
Text: TAF LEVC 261700Z 2618/2718 VRB03KT 9999 FEW030 TX27/2713Z TN12/2706Z
Forecast period: 0700 to 1200 UTC 27 April 2018
Forecast type: TEMPORARY: The following changes expected for less than half the time period
Winds: from the W (260 degrees) at 12 MPH (10 knots; 5.2 m/s)
Weather: no significant weather forecast for this period
Forecast for: LEVC (VALENCIA (CIV/MI, ES)
Text: TAF LEVC 261700Z 2618/2718 VRB03KT 9999 FEW030 TX27/2713Z TN12/2706Z
Forecast period: 1200 to 1800 UTC 27 April 2018
Forecast type: TEMPORARY: The following changes expected for less than half the time period
Winds: from the E (90 degrees) at 12 MPH (10 knots; 5.2 m/s)
Visibility: 1.86 miles (2.99 km)
Clouds: scattered clouds at 3000 feet AGL
Weather: TSRA  (rain associated with thunderstorm(s))
Forecast for: LEVC (VALENCIA (CIV/MI, ES)
Text: TAF LEVC 261700Z 2618/2718 VRB03KT 9999 FEW030 TX27/2713Z TN12/2706Z
Forecast period: 1200 to 1800 UTC 27 April 2018
Forecast type: TEMPORARY: The following changes expected for less than half the time period
Winds: from the E (90 degrees) at 12 MPH (10 knots; 5.2 m/s)
Visibility: 1.86 miles (2.99 km)
Clouds: scattered clouds at 3000 feet AGL
Weather: TSRA  (rain associated with thunderstorm(s))

 AIRPORT MAP

 RUNWAY INFORMATION
Runway 04 Runway length 5394 ft Runway width 148 ft
Runway elevation 205 ft Runway displaced threshold 0 ft Runway heading 38
Runway 22 Runway length 5394 ft Runway width 148 ft
Runway elevation 188 ft Runway displaced threshold 0 ft Runway heading 218
Runway 12 Runway length 8858 ft Runway width 148 ft
Runway elevation 225 ft Runway displaced threshold 0 ft Runway heading 116
Runway 30 Runway length 8858 ft Runway width 148 ft
Runway elevation 172 ft Runway displaced threshold 0 ft Runway heading 296

 AIRPORT FREQUENCIES
Type APP Name APP Frequency 120.1 MHZ
Type ATIS Name ATIS Frequency 121.075 MHZ
Type GND Name GND Frequency 121.7 MHZ
Type TWR Name TWR Frequency 118.55 MHZ

 AIRPORT NEAR NAVIGATION AIDS
Type NDB Name Valencia Frequency 400 KHZ
Type NDB Name Valencia Frequency 340 KHZ
Type NDB Name Sagunto Frequency 356 KHZ
Type VOR-DME Name Valencia Frequency 116100 KHZ



Powered by Virtual Airlines Manager [v2.6.2]